Time;durP1;ratioP1;P1;durP2;ratioP2;P2;SDS_P1;SDS_P2;PMS_P1;PMS_P2;Temp;Humidity;BMP_temperature;BMP_pressure;BME280_temperature;BME280_humidity;BME280_pressure;Samples;Min_cycle;Max_cycle;Signal;HPM_P1;HPM_P2
2023/10/28 00:01:16;;;;;;;;;;;10.50;99.90;;;;;;5014323;28;20649;-71
2023/10/28 00:03:42;;;;;;;;;;;10.50;99.90;;;;;;5029580;28;19921;-70
2023/10/28 00:06:08;;;;;;;;;;;10.50;99.90;;;;;;5004098;28;19927;-71
2023/10/28 00:08:35;;;;;;;;;;;10.50;99.90;;;;;;5007697;28;20363;-69
2023/10/28 00:11:01;;;;;;;;;;;10.40;99.90;;;;;;4973711;28;19964;-70
2023/10/28 00:13:27;;;;;;;;;;;10.40;99.90;;;;;;4995843;28;19925;-71
2023/10/28 00:15:53;;;;;;;;;;;10.40;99.90;;;;;;4995355;28;19928;-71
2023/10/28 00:18:19;;;;;;;;;;;10.40;99.90;;;;;;5058007;28;19943;-71
2023/10/28 00:20:45;;;;;;;;;;;10.40;99.90;;;;;;5002492;28;20011;-71
2023/10/28 00:23:13;;;;;;;;;;;10.40;99.90;;;;;;5030478;28;19936;-71
2023/10/28 00:25:39;;;;;;;;;;;10.40;99.90;;;;;;5002725;28;19935;-71
2023/10/28 00:28:05;;;;;;;;;;;10.40;99.90;;;;;;5031460;28;19929;-72
2023/10/28 00:30:31;;;;;;;;;;;10.40;99.90;;;;;;4995712;28;19933;-72
2023/10/28 00:32:58;;;;;;;;;;;10.40;99.90;;;;;;5008359;28;19928;-71
2023/10/28 00:35:24;;;;;;;;;;;10.40;99.90;;;;;;5015333;28;20322;-71
2023/10/28 00:37:50;;;;;;;;;;;10.40;99.90;;;;;;5029845;28;19925;-71
2023/10/28 00:40:17;;;;;;;;;;;10.40;99.90;;;;;;4997425;28;19936;-72
2023/10/28 00:42:45;;;;;;;;;;;10.40;99.90;;;;;;5009590;28;19925;-72
2023/10/28 00:45:11;;;;;;;;;;;10.40;99.90;;;;;;5001362;28;20023;-71
2023/10/28 00:47:38;;;;;;;;;;;10.40;99.90;;;;;;5051758;28;19936;-72
2023/10/28 00:50:12;;;;;;;;;;;10.40;99.90;;;;;;5025793;28;19933;-72
2023/10/28 00:52:43;;;;;;;;;;;10.40;99.90;;;;;;5029624;28;19929;-71
2023/10/28 00:55:10;;;;;;;;;;;10.40;99.90;;;;;;4981305;28;19937;-72
2023/10/28 00:57:40;;;;;;;;;;;10.30;99.90;;;;;;5027101;28;19929;-72
2023/10/28 01:00:06;;;;;;;;;;;10.40;99.90;;;;;;4982769;28;20001;-71
2023/10/28 01:02:34;;;;;;;;;;;10.40;99.90;;;;;;5054964;28;19925;-71
2023/10/28 01:05:00;;;;;;;;;;;10.40;99.90;;;;;;5001382;28;20321;-71
2023/10/28 01:07:27;;;;;;;;;;;10.40;99.90;;;;;;5037517;28;19921;-71
2023/10/28 01:09:53;;;;;;;;;;;10.40;99.90;;;;;;5015004;28;20910;-72
2023/10/28 01:12:21;;;;;;;;;;;10.40;99.90;;;;;;4999771;28;19929;-71
2023/10/28 01:14:47;;;;;;;;;;;10.40;99.90;;;;;;5025433;28;19925;-71
2023/10/28 01:17:13;;;;;;;;;;;10.40;99.90;;;;;;5010829;28;19925;-70
2023/10/28 01:19:39;;;;;;;;;;;10.40;99.90;;;;;;5026515;28;19948;-71
2023/10/28 01:22:05;;;;;;;;;;;10.40;99.90;;;;;;5025440;28;20517;-72
2023/10/28 01:24:32;;;;;;;;;;;10.30;99.90;;;;;;5025755;28;19921;-71
2023/10/28 01:26:59;;;;;;;;;;;10.40;99.90;;;;;;4975647;28;19932;-72
2023/10/28 01:29:25;;;;;;;;;;;10.30;99.90;;;;;;5028430;28;20601;-71
2023/10/28 01:31:51;;;;;;;;;;;10.30;99.90;;;;;;5005888;28;20416;-72
2023/10/28 01:34:17;;;;;;;;;;;10.20;99.90;;;;;;5005226;28;19921;-71
2023/10/28 01:36:45;;;;;;;;;;;10.30;99.90;;;;;;4978300;28;19925;-71
2023/10/28 01:39:15;;;;;;;;;;;10.20;99.90;;;;;;4996889;28;19930;-71
2023/10/28 01:41:41;;;;;;;;;;;10.20;99.90;;;;;;4993177;28;19921;-72
2023/10/28 01:44:07;;;;;;;;;;;10.20;99.90;;;;;;5022768;28;19947;-71
2023/10/28 01:46:33;;;;;;;;;;;10.10;99.90;;;;;;5031256;28;19925;-71
2023/10/28 01:48:59;;;;;;;;;;;10.10;99.90;;;;;;5028589;28;19926;-71
2023/10/28 01:51:25;;;;;;;;;;;10.00;99.90;;;;;;5008073;28;19921;-71
2023/10/28 01:53:51;;;;;;;;;;;10.00;99.90;;;;;;5024786;28;19936;-71
2023/10/28 01:56:17;;;;;;;;;;;10.00;99.90;;;;;;4997771;28;19925;-70
2023/10/28 01:58:43;;;;;;;;;;;10.00;99.90;;;;;;5004547;28;20030;-71
2023/10/28 02:01:09;;;;;;;;;;;9.90;99.90;;;;;;4992374;28;19929;-71
2023/10/28 02:03:35;;;;;;;;;;;9.90;99.90;;;;;;4993159;28;19936;-70
2023/10/28 02:06:01;;;;;;;;;;;9.90;99.90;;;;;;4992745;28;19925;-71
2023/10/28 02:08:27;;;;;;;;;;;9.90;99.90;;;;;;5026940;28;19929;-71
2023/10/28 02:10:53;;;;;;;;;;;9.80;99.90;;;;;;4988929;28;19928;-71
2023/10/28 02:13:19;;;;;;;;;;;9.80;99.90;;;;;;5042442;28;20375;-71
2023/10/28 02:15:47;;;;;;;;;;;9.80;99.90;;;;;;5008516;28;19930;-71
2023/10/28 02:18:13;;;;;;;;;;;9.80;99.90;;;;;;5017620;28;19932;-71
2023/10/28 02:20:41;;;;;;;;;;;9.70;99.90;;;;;;5000101;28;19925;-72
2023/10/28 02:23:09;;;;;;;;;;;9.70;99.90;;;;;;5019467;28;19956;-71
2023/10/28 02:25:35;;;;;;;;;;;9.70;99.90;;;;;;4980530;28;19929;-71
2023/10/28 02:28:01;;;;;;;;;;;9.70;99.90;;;;;;5003344;28;20469;-71
2023/10/28 02:30:27;;;;;;;;;;;9.70;99.90;;;;;;5009934;28;19992;-71
2023/10/28 02:32:54;;;;;;;;;;;9.70;99.90;;;;;;4996662;28;19922;-71
2023/10/28 02:35:20;;;;;;;;;;;9.60;99.90;;;;;;4986352;28;19924;-71
2023/10/28 02:37:46;;;;;;;;;;;9.60;99.90;;;;;;5045787;28;19940;-70
2023/10/28 02:40:12;;;;;;;;;;;9.50;99.90;;;;;;4996436;28;20533;-71
2023/10/28 02:42:38;;;;;;;;;;;9.50;99.90;;;;;;5019179;28;19921;-70
2023/10/28 02:45:07;;;;;;;;;;;9.50;99.90;;;;;;4978091;28;19930;-71
2023/10/28 02:47:33;;;;;;;;;;;9.40;99.90;;;;;;5037047;28;19921;-70
2023/10/28 02:49:59;;;;;;;;;;;9.40;99.90;;;;;;4992216;28;19936;-71
2023/10/28 02:52:26;;;;;;;;;;;9.40;99.90;;;;;;5000946;28;20435;-71
2023/10/28 02:54:52;;;;;;;;;;;9.30;99.90;;;;;;5026463;28;19928;-71
2023/10/28 02:57:18;;;;;;;;;;;9.30;99.90;;;;;;5051124;28;19925;-71
2023/10/28 02:59:44;;;;;;;;;;;9.30;99.90;;;;;;5016597;28;19932;-71
2023/10/28 03:02:10;;;;;;;;;;;9.30;99.90;;;;;;4991167;28;19964;-72
2023/10/28 03:04:36;;;;;;;;;;;9.30;99.90;;;;;;5018342;28;20422;-72
2023/10/28 03:07:02;;;;;;;;;;;9.30;99.90;;;;;;5012226;28;19931;-71
2023/10/28 03:09:30;;;;;;;;;;;9.20;99.90;;;;;;5054197;28;20395;-71
2023/10/28 03:11:56;;;;;;;;;;;9.20;99.90;;;;;;4975540;28;19929;-71
2023/10/28 03:14:22;;;;;;;;;;;9.20;99.90;;;;;;5007529;28;20344;-72
2023/10/28 03:16:48;;;;;;;;;;;9.20;99.90;;;;;;5003815;28;19928;-72
2023/10/28 03:19:14;;;;;;;;;;;9.20;99.90;;;;;;4999205;28;19940;-72
2023/10/28 03:21:40;;;;;;;;;;;9.20;99.90;;;;;;5002962;28;19924;-72
2023/10/28 03:24:06;;;;;;;;;;;9.20;99.90;;;;;;5026311;28;19929;-72
2023/10/28 03:26:32;;;;;;;;;;;9.10;99.90;;;;;;5010291;28;19921;-73
2023/10/28 03:28:59;;;;;;;;;;;9.20;99.90;;;;;;5032283;28;20395;-71
2023/10/28 03:31:26;;;;;;;;;;;9.10;99.90;;;;;;4988281;28;19935;-72
2023/10/28 03:33:52;;;;;;;;;;;9.10;99.90;;;;;;5030438;28;19940;-70
2023/10/28 03:36:18;;;;;;;;;;;9.10;99.90;;;;;;4984361;28;19925;-71
2023/10/28 03:38:44;;;;;;;;;;;9.10;99.90;;;;;;5004868;28;20007;-72
2023/10/28 03:41:11;;;;;;;;;;;9.10;99.90;;;;;;4997345;28;19932;-72
2023/10/28 03:43:41;;;;;;;;;;;9.10;99.90;;;;;;5033887;28;19936;-73
2023/10/28 03:46:07;;;;;;;;;;;9.10;99.90;;;;;;5003561;28;20035;-72
2023/10/28 03:48:33;;;;;;;;;;;9.20;99.90;;;;;;5016284;28;19925;-72
2023/10/28 03:51:01;;;;;;;;;;;9.20;99.90;;;;;;4967517;28;19931;-72
2023/10/28 03:53:27;;;;;;;;;;;9.20;99.90;;;;;;5016565;28;19922;-72
2023/10/28 03:55:53;;;;;;;;;;;9.20;99.90;;;;;;5008819;28;19951;-72
2023/10/28 03:58:19;;;;;;;;;;;9.30;99.90;;;;;;5035029;28;19936;-72
2023/10/28 04:00:46;;;;;;;;;;;9.30;99.90;;;;;;4998438;28;19937;-72
2023/10/28 04:03:12;;;;;;;;;;;9.30;99.90;;;;;;5024309;28;20392;-72
2023/10/28 04:05:38;;;;;;;;;;;9.40;99.90;;;;;;4997282;28;19925;-72
2023/10/28 04:08:05;;;;;;;;;;;9.40;99.90;;;;;;5009273;28;20470;-73
2023/10/28 04:10:31;;;;;;;;;;;9.40;99.90;;;;;;4981553;28;19921;-70
2023/10/28 04:12:57;;;;;;;;;;;9.40;99.90;;;;;;5021831;28;19922;-71
2023/10/28 04:15:22;;;;;;;;;;;9.40;99.90;;;;;;4980584;28;20616;-72
2023/10/28 04:17:48;;;;;;;;;;;9.50;99.90;;;;;;5019253;28;19956;-71
2023/10/28 04:20:15;;;;;;;;;;;9.50;99.90;;;;;;4987406;28;19936;-71
2023/10/28 04:22:41;;;;;;;;;;;9.50;99.90;;;;;;5017360;28;19921;-72
2023/10/28 04:25:08;;;;;;;;;;;9.50;99.90;;;;;;4983561;28;19925;-72
2023/10/28 04:27:34;;;;;;;;;;;9.50;99.90;;;;;;5018771;28;19921;-72
2023/10/28 04:30:00;;;;;;;;;;;9.50;99.90;;;;;;4977910;28;19929;-71
2023/10/28 04:32:27;;;;;;;;;;;9.50;99.90;;;;;;5014144;28;19925;-71
2023/10/28 04:34:53;;;;;;;;;;;9.60;99.90;;;;;;5029236;28;19921;-71
2023/10/28 04:37:19;;;;;;;;;;;9.60;99.90;;;;;;4975175;28;19931;-72
2023/10/28 04:39:45;;;;;;;;;;;9.60;99.90;;;;;;5021989;28;19933;-73
2023/10/28 04:42:11;;;;;;;;;;;9.60;99.90;;;;;;4997204;28;19924;-72
2023/10/28 04:44:36;;;;;;;;;;;9.60;99.90;;;;;;5014333;28;19933;-71
2023/10/28 04:47:02;;;;;;;;;;;9.60;99.90;;;;;;5030820;28;19978;-72
2023/10/28 04:49:29;;;;;;;;;;;9.70;99.90;;;;;;5028182;28;19932;-72
2023/10/28 04:51:55;;;;;;;;;;;9.70;99.90;;;;;;5041575;28;19929;-72
2023/10/28 04:54:21;;;;;;;;;;;9.70;99.90;;;;;;5043750;28;19937;-73
2023/10/28 04:56:48;;;;;;;;;;;9.70;99.90;;;;;;4991272;28;19925;-72
2023/10/28 04:59:15;;;;;;;;;;;9.70;99.90;;;;;;5021079;28;19925;-72
2023/10/28 05:01:41;;;;;;;;;;;9.70;99.90;;;;;;5011414;28;19929;-72
2023/10/28 05:04:10;;;;;;;;;;;9.70;99.90;;;;;;5009929;28;20293;-72
2023/10/28 05:06:36;;;;;;;;;;;9.70;99.90;;;;;;5006016;28;19952;-73
2023/10/28 05:09:02;;;;;;;;;;;9.70;99.90;;;;;;5009336;28;19926;-72
2023/10/28 05:11:28;;;;;;;;;;;9.70;99.90;;;;;;4985652;28;19928;-72
2023/10/28 05:13:54;;;;;;;;;;;9.70;99.90;;;;;;5006050;28;19926;-72
2023/10/28 05:16:23;;;;;;;;;;;9.80;99.90;;;;;;4992185;28;20391;-73
2023/10/28 05:18:49;;;;;;;;;;;9.70;99.90;;;;;;5008700;28;19938;-73
2023/10/28 05:21:15;;;;;;;;;;;9.70;99.90;;;;;;5013659;28;19921;-73
2023/10/28 05:23:42;;;;;;;;;;;9.80;99.90;;;;;;5013078;28;19925;-72
2023/10/28 05:26:08;;;;;;;;;;;9.80;99.90;;;;;;4999888;28;19920;-71
2023/10/28 05:28:34;;;;;;;;;;;9.80;99.90;;;;;;5032725;28;19929;-73
2023/10/28 05:31:00;;;;;;;;;;;9.80;99.90;;;;;;5011971;28;19932;-72
2023/10/28 05:33:26;;;;;;;;;;;9.80;99.90;;;;;;5020536;28;19929;-74
2023/10/28 05:35:52;;;;;;;;;;;9.80;99.90;;;;;;4999036;28;19920;-71
2023/10/28 05:38:20;;;;;;;;;;;9.80;99.90;;;;;;5022927;28;20432;-72
2023/10/28 05:40:46;;;;;;;;;;;9.80;99.90;;;;;;4987286;28;20375;-73
2023/10/28 05:43:12;;;;;;;;;;;9.90;99.90;;;;;;5018623;28;19925;-73
2023/10/28 05:45:38;;;;;;;;;;;9.90;99.90;;;;;;5008882;28;19925;-74
2023/10/28 05:48:04;;;;;;;;;;;9.90;99.90;;;;;;5011612;28;19922;-73
2023/10/28 05:50:30;;;;;;;;;;;9.90;99.90;;;;;;4983404;28;20307;-73
2023/10/28 05:52:55;;;;;;;;;;;9.90;99.90;;;;;;5027764;28;19930;-73
2023/10/28 05:55:22;;;;;;;;;;;9.90;99.90;;;;;;4988916;28;20322;-74
2023/10/28 05:57:47;;;;;;;;;;;9.90;99.90;;;;;;5036558;28;19928;-73
2023/10/28 06:00:14;;;;;;;;;;;9.90;99.90;;;;;;5003408;28;20342;-72
2023/10/28 06:02:40;;;;;;;;;;;9.90;99.90;;;;;;5048036;28;20506;-73
2023/10/28 06:05:06;;;;;;;;;;;9.90;99.90;;;;;;5002207;28;19935;-73
2023/10/28 06:07:32;;;;;;;;;;;9.90;99.90;;;;;;5048288;28;19921;-73
2023/10/28 06:09:58;;;;;;;;;;;10.00;99.90;;;;;;4995585;28;19925;-73
2023/10/28 06:12:27;;;;;;;;;;;10.00;99.90;;;;;;5034121;28;19921;-73
2023/10/28 06:14:53;;;;;;;;;;;10.00;99.90;;;;;;5018082;28;19925;-72
2023/10/28 06:17:20;;;;;;;;;;;10.00;99.90;;;;;;4986834;28;19921;-73
2023/10/28 06:19:46;;;;;;;;;;;10.00;99.90;;;;;;5025417;28;19933;-73
2023/10/28 06:22:13;;;;;;;;;;;10.00;99.90;;;;;;4992879;28;19925;-73
2023/10/28 06:24:39;;;;;;;;;;;10.00;99.90;;;;;;5001412;28;20384;-73
2023/10/28 06:27:05;;;;;;;;;;;10.10;99.90;;;;;;5025578;28;19925;-74
2023/10/28 06:29:31;;;;;;;;;;;10.00;99.90;;;;;;5025962;28;20024;-73
2023/10/28 06:31:58;;;;;;;;;;;10.10;99.90;;;;;;5022826;28;19924;-74
2023/10/28 06:34:27;;;;;;;;;;;10.10;99.90;;;;;;5022738;28;20402;-74
2023/10/28 06:36:55;;;;;;;;;;;10.00;99.90;;;;;;4991892;28;20474;-73
2023/10/28 06:39:21;;;;;;;;;;;10.10;99.90;;;;;;5003681;28;19933;-74
2023/10/28 06:41:47;;;;;;;;;;;10.10;99.90;;;;;;5004702;28;20391;-73
2023/10/28 06:44:13;;;;;;;;;;;10.10;99.90;;;;;;5027773;28;19921;-73
2023/10/28 06:46:39;;;;;;;;;;;10.10;99.90;;;;;;5011791;28;19925;-74
2023/10/28 06:49:05;;;;;;;;;;;10.10;99.90;;;;;;5026485;28;20007;-73
2023/10/28 06:51:33;;;;;;;;;;;10.10;99.90;;;;;;4992661;28;19921;-73
2023/10/28 06:53:58;;;;;;;;;;;10.20;99.90;;;;;;5003531;28;19928;-73
2023/10/28 06:56:27;;;;;;;;;;;10.20;99.90;;;;;;4999741;28;20298;-73
2023/10/28 06:58:53;;;;;;;;;;;10.20;99.90;;;;;;5024224;28;20327;-73
2023/10/28 07:01:19;;;;;;;;;;;10.20;99.90;;;;;;5006204;28;19925;-73
2023/10/28 07:03:45;;;;;;;;;;;10.20;99.90;;;;;;5004368;28;19969;-72
2023/10/28 07:06:14;;;;;;;;;;;10.20;99.90;;;;;;4999042;28;19924;-73
2023/10/28 07:08:41;;;;;;;;;;;10.30;99.90;;;;;;5005447;28;19925;-73
2023/10/28 07:11:07;;;;;;;;;;;10.20;99.90;;;;;;4992726;28;19951;-73
2023/10/28 07:13:33;;;;;;;;;;;10.30;99.90;;;;;;5037645;28;20541;-73
2023/10/28 07:15:59;;;;;;;;;;;10.30;99.90;;;;;;5014307;28;20023;-73
2023/10/28 07:18:26;;;;;;;;;;;10.40;99.90;;;;;;5027810;28;19925;-73
2023/10/28 07:20:52;;;;;;;;;;;10.30;99.90;;;;;;5016006;28;19939;-74
2023/10/28 07:23:20;;;;;;;;;;;10.30;99.90;;;;;;5047474;28;19929;-73
2023/10/28 07:25:45;;;;;;;;;;;10.30;99.90;;;;;;4987786;28;19928;-72
2023/10/28 07:28:14;;;;;;;;;;;10.30;99.90;;;;;;5039298;28;19932;-72
2023/10/28 07:30:44;;;;;;;;;;;10.40;99.90;;;;;;4999003;28;19936;-72
2023/10/28 07:33:10;;;;;;;;;;;10.30;99.90;;;;;;5029642;28;19925;-73
2023/10/28 07:35:36;;;;;;;;;;;10.40;99.90;;;;;;5005931;28;19931;-72
2023/10/28 07:38:02;;;;;;;;;;;10.40;99.90;;;;;;5029920;28;19935;-73
2023/10/28 07:40:27;;;;;;;;;;;10.40;99.90;;;;;;5007240;28;19924;-73
2023/10/28 07:42:54;;;;;;;;;;;10.40;99.90;;;;;;5054040;28;19921;-72
2023/10/28 07:45:19;;;;;;;;;;;10.40;99.90;;;;;;5027512;28;19925;-73
2023/10/28 07:47:45;;;;;;;;;;;10.40;99.90;;;;;;5028988;28;19925;-72
2023/10/28 07:50:11;;;;;;;;;;;10.40;99.90;;;;;;4980775;28;19945;-73
2023/10/28 07:52:37;;;;;;;;;;;10.40;99.90;;;;;;5046527;28;20311;-73
2023/10/28 07:55:11;;;;;;;;;;;10.40;99.90;;;;;;4995173;28;19927;-73
2023/10/28 07:57:37;;;;;;;;;;;10.40;99.90;;;;;;5036301;28;19929;-73
2023/10/28 08:00:06;;;;;;;;;;;10.40;99.90;;;;;;4996764;28;19955;-72
2023/10/28 08:02:32;;;;;;;;;;;10.40;99.90;;;;;;5032250;28;19925;-73
2023/10/28 08:04:58;;;;;;;;;;;10.50;99.90;;;;;;4969063;28;20360;-71
2023/10/28 08:07:24;;;;;;;;;;;10.50;99.90;;;;;;5049324;28;20032;-71
2023/10/28 08:09:50;;;;;;;;;;;10.70;99.90;;;;;;5018291;28;19925;-71
2023/10/28 08:12:16;;;;;;;;;;;10.80;99.90;;;;;;4987528;28;19925;-72
2023/10/28 08:14:46;;;;;;;;;;;10.90;99.90;;;;;;5021274;28;19921;-72
2023/10/28 08:17:12;;;;;;;;;;;10.90;99.90;;;;;;4970454;28;19921;-71
2023/10/28 08:19:38;;;;;;;;;;;10.90;99.90;;;;;;4984660;28;19930;-72
2023/10/28 08:22:04;;;;;;;;;;;11.00;99.90;;;;;;5008283;28;19929;-73
2023/10/28 08:24:30;;;;;;;;;;;11.00;99.90;;;;;;5023555;28;19925;-72
2023/10/28 08:26:56;;;;;;;;;;;11.10;99.90;;;;;;5037764;28;20400;-72
2023/10/28 08:29:24;;;;;;;;;;;11.10;99.90;;;;;;5023587;28;19925;-72
2023/10/28 08:31:50;;;;;;;;;;;11.20;99.90;;;;;;5001535;28;19928;-71
2023/10/28 08:34:16;;;;;;;;;;;11.20;99.90;;;;;;5001568;28;19925;-72
2023/10/28 08:36:42;;;;;;;;;;;11.20;99.90;;;;;;5005160;28;19939;-73
2023/10/28 08:39:09;;;;;;;;;;;11.30;99.90;;;;;;5028305;28;20036;-71
2023/10/28 08:41:35;;;;;;;;;;;11.30;99.90;;;;;;5016450;28;19932;-72
2023/10/28 08:44:04;;;;;;;;;;;11.30;99.90;;;;;;5023680;28;19921;-72
2023/10/28 08:46:31;;;;;;;;;;;11.30;99.90;;;;;;5018715;28;19932;-71
2023/10/28 08:48:58;;;;;;;;;;;11.30;99.90;;;;;;5031837;28;19925;-72
2023/10/28 08:51:25;;;;;;;;;;;11.20;99.90;;;;;;5013334;28;19959;-72
2023/10/28 08:53:59;;;;;;;;;;;11.10;99.90;;;;;;5027916;28;19932;-72
2023/10/28 08:56:25;;;;;;;;;;;11.10;99.90;;;;;;4995097;28;19928;-72
2023/10/28 08:58:52;;;;;;;;;;;11.10;99.90;;;;;;5012718;28;19929;-72
2023/10/28 09:01:22;;;;;;;;;;;11.10;99.90;;;;;;4997915;28;19929;-72
2023/10/28 09:03:52;;;;;;;;;;;11.10;99.90;;;;;;4994663;28;20388;-70
2023/10/28 09:06:20;;;;;;;;;;;11.10;99.90;;;;;;4987971;28;19926;-72
2023/10/28 09:08:46;;;;;;;;;;;11.00;99.90;;;;;;4999439;28;19930;-71
2023/10/28 09:11:12;;;;;;;;;;;11.10;99.90;;;;;;5005600;28;19924;-71
2023/10/28 09:13:42;;;;;;;;;;;11.10;99.90;;;;;;5033158;28;19936;-71
2023/10/28 09:16:08;;;;;;;;;;;11.20;99.90;;;;;;5004117;28;19932;-71
2023/10/28 09:18:38;;;;;;;;;;;11.30;99.90;;;;;;5013651;28;20308;-72
2023/10/28 09:21:11;;;;;;;;;;;11.30;99.90;;;;;;5006848;28;20364;-72
2023/10/28 09:23:37;;;;;;;;;;;11.40;99.90;;;;;;5034665;28;20323;-72
2023/10/28 09:26:04;;;;;;;;;;;11.50;99.90;;;;;;4999511;28;19944;-71
2023/10/28 09:28:30;;;;;;;;;;;11.50;99.90;;;;;;5016959;28;19932;-72
2023/10/28 09:30:58;;;;;;;;;;;11.50;99.90;;;;;;5009122;28;19927;-71
2023/10/28 09:33:31;;;;;;;;;;;11.50;99.90;;;;;;5044361;28;20808;-71
2023/10/28 09:35:57;;;;;;;;;;;11.60;99.90;;;;;;5003407;28;19936;-71
2023/10/28 09:38:23;;;;;;;;;;;11.70;99.90;;;;;;5019266;28;20011;-70
2023/10/28 09:40:50;;;;;;;;;;;11.70;99.90;;;;;;4991001;28;19932;-72
2023/10/28 09:43:15;;;;;;;;;;;11.70;99.90;;;;;;5012339;28;20593;-72
2023/10/28 09:45:49;;;;;;;;;;;11.80;99.90;;;;;;4991813;28;19921;-71
2023/10/28 09:48:16;;;;;;;;;;;11.80;99.90;;;;;;5020521;28;20289;-71
2023/10/28 09:50:52;;;;;;;;;;;12.00;99.90;;;;;;4976575;28;19936;-72
2023/10/28 09:53:33;;;;;;;;;;;11.90;99.90;;;;;;5009228;28;19929;-71
2023/10/28 09:56:01;;;;;;;;;;;12.10;99.90;;;;;;4971071;28;19921;-71
2023/10/28 09:58:31;;;;;;;;;;;12.00;99.90;;;;;;5018436;28;20224;-71
2023/10/28 10:01:04;;;;;;;;;;;12.00;99.90;;;;;;4986697;28;19933;-70
2023/10/28 10:03:31;;;;;;;;;;;11.90;99.90;;;;;;5018362;28;19936;-71
2023/10/28 10:05:57;;;;;;;;;;;11.80;99.90;;;;;;4991307;28;19921;-71
2023/10/28 10:08:23;;;;;;;;;;;11.80;99.90;;;;;;5021538;28;19933;-70
2023/10/28 10:10:50;;;;;;;;;;;11.80;99.90;;;;;;5004340;28;20402;-71
2023/10/28 10:13:16;;;;;;;;;;;11.80;99.90;;;;;;5012527;28;19925;-71
2023/10/28 10:15:44;;;;;;;;;;;11.80;99.90;;;;;;5005163;28;19929;-70
2023/10/28 10:18:11;;;;;;;;;;;11.70;99.90;;;;;;5012526;28;19929;-71
2023/10/28 10:20:42;;;;;;;;;;;11.80;99.90;;;;;;4983690;28;20179;-71
2023/10/28 10:23:09;;;;;;;;;;;11.80;99.90;;;;;;5022762;28;19922;-70
2023/10/28 10:25:36;;;;;;;;;;;11.80;99.90;;;;;;4958382;28;19929;-71
2023/10/28 10:28:10;;;;;;;;;;;11.80;99.90;;;;;;5014701;28;20396;-71
2023/10/28 10:30:36;;;;;;;;;;;11.90;99.90;;;;;;4984489;28;19924;-72
2023/10/28 10:33:03;;;;;;;;;;;11.90;99.90;;;;;;5028374;28;20410;-71
2023/10/28 10:35:31;;;;;;;;;;;11.90;99.90;;;;;;4991695;28;19925;-71
2023/10/28 10:38:04;;;;;;;;;;;11.90;99.90;;;;;;5010847;28;20409;-71
2023/10/28 10:40:34;;;;;;;;;;;11.90;99.90;;;;;;4993277;28;19928;-73
2023/10/28 10:43:19;;;;;;;;;;;12.10;99.90;;;;;;5040051;28;19925;-71
2023/10/28 10:45:45;;;;;;;;;;;12.10;99.90;;;;;;4998069;28;19931;-71
2023/10/28 10:48:11;;;;;;;;;;;12.20;99.90;;;;;;5024939;28;20396;-72
2023/10/28 10:50:38;;;;;;;;;;;12.20;99.90;;;;;;5002869;28;19936;-71
2023/10/28 10:53:04;;;;;;;;;;;12.30;99.90;;;;;;5050934;28;19925;-71
2023/10/28 10:55:30;;;;;;;;;;;12.50;99.90;;;;;;4991317;28;20406;-71
2023/10/28 10:57:56;;;;;;;;;;;12.60;99.90;;;;;;5009043;28;19933;-70
2023/10/28 11:00:22;;;;;;;;;;;12.70;99.90;;;;;;4975839;28;19929;-71
2023/10/28 11:02:49;;;;;;;;;;;12.80;99.90;;;;;;5008740;28;19937;-71
2023/10/28 11:05:16;;;;;;;;;;;12.80;99.90;;;;;;4979635;28;19925;-71
2023/10/28 11:07:43;;;;;;;;;;;12.80;99.90;;;;;;5020775;28;20809;-72
2023/10/28 11:10:09;;;;;;;;;;;12.90;99.90;;;;;;4973729;28;20308;-71
2023/10/28 11:12:35;;;;;;;;;;;13.00;99.90;;;;;;5040793;28;19925;-71
2023/10/28 11:15:03;;;;;;;;;;;13.00;99.90;;;;;;4984252;28;21052;-71
2023/10/28 11:17:29;;;;;;;;;;;13.00;99.90;;;;;;5037646;28;19928;-71
2023/10/28 11:19:56;;;;;;;;;;;12.90;99.90;;;;;;4999317;28;19928;-71
2023/10/28 11:22:23;;;;;;;;;;;12.80;99.90;;;;;;5010376;28;20278;-72
2023/10/28 11:24:55;;;;;;;;;;;12.70;99.90;;;;;;4999477;28;19926;-71
2023/10/28 11:27:23;;;;;;;;;;;12.70;99.90;;;;;;4950002;28;19925;-71
2023/10/28 11:29:50;;;;;;;;;;;12.80;99.90;;;;;;5002760;28;19925;-71
2023/10/28 11:32:15;;;;;;;;;;;12.80;99.90;;;;;;5021230;28;19925;-71
2023/10/28 11:34:48;;;;;;;;;;;12.70;99.90;;;;;;5023006;28;19921;-72
2023/10/28 11:37:15;;;;;;;;;;;12.80;99.90;;;;;;4981967;28;19940;-71
2023/10/28 11:39:44;;;;;;;;;;;12.80;99.90;;;;;;5023184;28;19932;-71
2023/10/28 11:42:10;;;;;;;;;;;12.90;99.90;;;;;;5011149;28;20682;-73
2023/10/28 11:44:37;;;;;;;;;;;12.80;99.90;;;;;;5001877;28;19929;-74
2023/10/28 11:47:05;;;;;;;;;;;12.80;99.90;;;;;;5013232;28;20012;-73
2023/10/28 11:49:31;;;;;;;;;;;12.80;99.90;;;;;;5019903;28;19925;-73
2023/10/28 11:51:57;;;;;;;;;;;12.80;99.90;;;;;;5016312;28;19924;-73
2023/10/28 11:54:23;;;;;;;;;;;12.80;99.90;;;;;;5020655;28;19926;-73
2023/10/28 11:56:48;;;;;;;;;;;12.80;99.90;;;;;;5020215;28;19930;-74
2023/10/28 11:59:15;;;;;;;;;;;12.70;99.90;;;;;;5020625;28;19932;-73
2023/10/28 12:01:41;;;;;;;;;;;12.80;99.90;;;;;;5003331;28;19940;-71
2023/10/28 12:04:07;;;;;;;;;;;12.80;99.90;;;;;;5022788;28;19925;-71
2023/10/28 12:06:33;;;;;;;;;;;12.90;99.90;;;;;;5001067;28;19928;-72
2023/10/28 12:09:00;;;;;;;;;;;13.00;99.90;;;;;;5024829;28;20326;-72
2023/10/28 12:11:27;;;;;;;;;;;13.00;99.90;;;;;;5028953;28;19921;-72
2023/10/28 12:13:56;;;;;;;;;;;13.00;99.90;;;;;;5032763;28;19921;-72
2023/10/28 12:16:22;;;;;;;;;;;12.90;99.90;;;;;;5031208;28;19920;-72
2023/10/28 12:18:48;;;;;;;;;;;12.90;99.90;;;;;;5035372;28;19925;-72
2023/10/28 12:21:15;;;;;;;;;;;13.00;99.90;;;;;;5011925;28;19924;-72
2023/10/28 12:23:42;;;;;;;;;;;13.10;99.90;;;;;;5029087;28;19925;-71
2023/10/28 12:26:08;;;;;;;;;;;13.10;99.90;;;;;;4995253;28;19929;-70
2023/10/28 12:28:34;;;;;;;;;;;13.00;99.90;;;;;;5008529;28;19928;-71
2023/10/28 12:31:02;;;;;;;;;;;13.00;99.90;;;;;;4988911;28;19920;-71
2023/10/28 12:33:28;;;;;;;;;;;12.90;99.90;;;;;;5017735;28;19937;-71
2023/10/28 12:35:54;;;;;;;;;;;12.80;99.90;;;;;;4996432;28;20605;-71
2023/10/28 12:38:20;;;;;;;;;;;12.80;99.90;;;;;;5038294;28;20612;-71
2023/10/28 12:40:46;;;;;;;;;;;12.80;99.90;;;;;;5005043;28;20409;-71
2023/10/28 12:43:12;;;;;;;;;;;12.90;99.90;;;;;;5038876;28;20006;-71
2023/10/28 12:45:38;;;;;;;;;;;13.00;99.90;;;;;;5000948;28;19931;-70
2023/10/28 12:48:04;;;;;;;;;;;13.20;99.90;;;;;;5020812;28;19926;-72
2023/10/28 12:50:30;;;;;;;;;;;13.50;99.90;;;;;;5001945;28;19929;-70
2023/10/28 12:52:57;;;;;;;;;;;13.60;99.90;;;;;;5015000;28;19969;-71
2023/10/28 12:55:23;;;;;;;;;;;13.80;99.90;;;;;;4980008;28;19928;-71
2023/10/28 12:57:49;;;;;;;;;;;14.00;99.90;;;;;;5047499;28;19932;-71
2023/10/28 13:00:17;;;;;;;;;;;14.10;99.90;;;;;;5001099;28;19925;-72
2023/10/28 13:02:44;;;;;;;;;;;14.10;99.90;;;;;;5030328;28;19928;-72
2023/10/28 13:05:10;;;;;;;;;;;14.20;99.90;;;;;;4983890;28;19932;-71
2023/10/28 13:07:36;;;;;;;;;;;14.30;99.90;;;;;;5053990;28;20403;-70
2023/10/28 13:10:02;;;;;;;;;;;14.40;99.90;;;;;;4997543;28;20346;-72
2023/10/28 13:12:28;;;;;;;;;;;14.40;99.90;;;;;;5052123;28;19929;-72
2023/10/28 13:14:55;;;;;;;;;;;14.50;99.90;;;;;;5014600;28;19925;-72
2023/10/28 13:17:21;;;;;;;;;;;14.60;99.90;;;;;;5005924;28;19929;-71
2023/10/28 13:19:47;;;;;;;;;;;14.70;99.90;;;;;;5006208;28;20396;-71
2023/10/28 13:22:13;;;;;;;;;;;14.70;99.90;;;;;;5011803;28;20024;-71
2023/10/28 13:24:39;;;;;;;;;;;14.70;99.90;;;;;;5006706;28;19929;-71
2023/10/28 13:27:04;;;;;;;;;;;14.70;99.90;;;;;;5040660;28;20470;-70
2023/10/28 13:29:30;;;;;;;;;;;14.50;99.90;;;;;;5026819;28;19928;-71
2023/10/28 13:31:56;;;;;;;;;;;14.30;99.90;;;;;;5040353;28;19946;-68
2023/10/28 13:34:24;;;;;;;;;;;14.10;99.90;;;;;;5023097;28;19921;-72
2023/10/28 13:36:50;;;;;;;;;;;14.10;99.90;;;;;;5024648;28;19995;-72
2023/10/28 13:39:16;;;;;;;;;;;14.10;99.90;;;;;;5026986;28;19929;-71
2023/10/28 13:41:42;;;;;;;;;;;14.20;99.90;;;;;;5043475;28;19935;-71
2023/10/28 13:44:09;;;;;;;;;;;14.20;99.90;;;;;;5028756;28;19932;-72
2023/10/28 13:46:35;;;;;;;;;;;14.20;99.90;;;;;;5037838;28;20296;-71
2023/10/28 13:49:01;;;;;;;;;;;14.20;99.90;;;;;;5030427;28;19955;-73
2023/10/28 13:51:27;;;;;;;;;;;14.10;99.90;;;;;;5007536;28;19925;-72
2023/10/28 13:53:53;;;;;;;;;;;14.00;99.90;;;;;;5007497;28;19929;-71
2023/10/28 13:56:20;;;;;;;;;;;13.90;99.90;;;;;;4976445;28;19929;-73
2023/10/28 13:58:46;;;;;;;;;;;13.80;99.90;;;;;;5007850;28;19925;-70
2023/10/28 14:01:12;;;;;;;;;;;13.70;99.90;;;;;;5037346;28;19935;-71
2023/10/28 14:03:38;;;;;;;;;;;13.60;99.90;;;;;;5040297;28;19925;-72
2023/10/28 14:06:04;;;;;;;;;;;13.60;99.90;;;;;;5026063;28;19924;-73
2023/10/28 14:08:30;;;;;;;;;;;13.50;99.90;;;;;;5051198;28;19931;-72
2023/10/28 14:10:56;;;;;;;;;;;13.50;99.90;;;;;;4985369;28;19925;-71
2023/10/28 14:13:22;;;;;;;;;;;13.40;99.90;;;;;;5022288;28;20303;-71
2023/10/28 14:15:48;;;;;;;;;;;13.50;99.90;;;;;;5000744;28;19928;-71
2023/10/28 14:18:16;;;;;;;;;;;13.40;99.90;;;;;;5039648;28;19931;-72